Time;durP1;ratioP1;P1;durP2;ratioP2;P2;SDS_P1;SDS_P2;PMS_P1;PMS_P2;Temp;Humidity;BMP_temperature;BMP_pressure;BME280_temperature;BME280_humidity;BME280_pressure;Samples;Min_cycle;Max_cycle;Signal;HPM_P1;HPM_P2
2021/11/04 00:01:15;;;;;;;13.27;2.10;;;;;;;;;;4818230;28;20234;-76
2021/11/04 00:03:38;;;;;;;13.00;2.13;;;;;;;;;;4837560;28;20265;-76
2021/11/04 00:06:02;;;;;;;8.37;1.50;;;9.30;46.40;;;;;;4839224;28;20191;-75
2021/11/04 00:08:25;;;;;;;6.13;1.20;;;;;;;;;;4837397;28;20233;-75
2021/11/04 00:10:48;;;;;;;7.10;1.37;;;8.70;46.30;;;;;;4837489;28;20593;-79
2021/11/04 00:13:10;;;;;;;9.13;1.57;;;;;;;;;;4838654;28;20573;-75
2021/11/04 00:15:33;;;;;;;12.53;1.97;;;;;;;;;;4838838;28;20199;-79
2021/11/04 00:17:58;;;;;;;8.50;1.50;;;9.20;46.40;;;;;;4837561;28;20233;-75
2021/11/04 00:20:21;;;;;;;7.27;1.40;;;;;;;;;;4838479;28;20190;-75
2021/11/04 00:22:46;;;;;;;3.93;0.93;;;8.70;47.10;;;;;;4838615;28;20260;-75
2021/11/04 00:25:10;;;;;;;7.30;1.27;;;8.80;46.10;;;;;;4837569;28;20195;-76
2021/11/04 00:27:32;;;;;;;13.83;2.13;;;9.30;46.20;;;;;;4837142;28;20684;-79
2021/11/04 00:29:55;;;;;;;7.30;1.30;;;9.10;46.60;;;;;;4837532;28;20237;-75
2021/11/04 00:32:17;;;;;;;8.07;1.57;;;9.20;46.20;;;;;;4836422;28;20202;-79
2021/11/04 00:34:40;;;;;;;8.90;1.53;;;;;;;;;;4837295;28;20202;-75
2021/11/04 00:37:03;;;;;;;6.03;1.13;;;8.90;45.90;;;;;;4837396;28;20722;-82
2021/11/04 00:39:27;;;;;;;9.47;1.60;;;8.30;46.50;;;;;;4836644;28;20644;-75
2021/11/04 00:41:50;;;;;;;11.93;1.87;;;8.80;45.70;;;;;;4837066;28;20293;-75
2021/11/04 00:44:13;;;;;;;8.57;1.30;;;;;;;;;;4838237;28;20230;-75
2021/11/04 00:46:36;;;;;;;16.20;2.43;;;8.80;46.80;;;;;;4838157;28;20186;-74
2021/11/04 00:48:59;;;;;;;15.17;2.13;;;8.80;46.90;;;;;;4838135;28;20273;-76
2021/11/04 00:51:22;;;;;;;12.13;1.77;;;;;;;;;;4836715;28;20241;-75
2021/11/04 00:53:44;;;;;;;5.37;1.00;;;9.00;46.90;;;;;;4820851;28;20238;-75
2021/11/04 00:56:08;;;;;;;9.20;1.47;;;8.80;46.90;;;;;;4820414;28;20206;-77
2021/11/04 00:58:31;;;;;;;14.70;2.07;;;;;;;;;;4820316;28;20200;-79
2021/11/04 01:00:54;;;;;;;14.20;2.13;;;;;;;;;;4834828;28;20199;-78
2021/11/04 01:03:16;;;;;;;11.80;1.87;;;;;;;;;;4844440;28;20288;-83
2021/11/04 01:05:39;;;;;;;9.70;1.57;;;;;;;;;;4836571;28;20199;-81
2021/11/04 01:08:02;;;;;;;7.60;1.17;;;8.80;45.90;;;;;;4838194;28;20587;-82
2021/11/04 01:10:25;;;;;;;8.47;1.43;;;;;;;;;;4837129;28;20234;-83
2021/11/04 01:12:51;;;;;;;8.73;1.40;;;8.80;47.10;;;;;;4836739;28;20248;-78
2021/11/04 01:15:13;;;;;;;11.27;1.73;;;9.10;46.10;;;;;;4836431;28;20652;-81
2021/11/04 01:17:36;;;;;;;14.53;2.13;;;8.60;45.90;;;;;;4820186;28;20199;-82
2021/11/04 01:19:59;;;;;;;7.13;1.20;;;8.60;45.90;;;;;;4836091;28;20592;-82
2021/11/04 01:22:21;;;;;;;17.10;2.53;;;8.80;46.00;;;;;;4836098;28;20190;-80
2021/11/04 01:24:44;;;;;;;3.77;0.80;;;;;;;;;;4820123;28;20200;-80
2021/11/04 01:27:07;;;;;;;8.17;1.30;;;;;;;;;;4837902;28;20241;-83
2021/11/04 01:29:31;;;;;;;16.67;2.40;;;8.80;47.20;;;;;;4830138;28;20206;-80
2021/11/04 01:31:54;;;;;;;8.83;1.43;;;9.20;46.60;;;;;;4836479;28;20194;-80
2021/11/04 01:34:17;;;;;;;9.90;1.60;;;;;;;;;;4820074;28;20609;-75
2021/11/04 01:36:39;;;;;;;19.13;2.73;;;9.00;47.20;;;;;;4839809;28;20195;-76
2021/11/04 01:39:03;;;;;;;8.40;1.30;;;;;;;;;;4835966;28;20206;-75
2021/11/04 01:41:26;;;;;;;7.60;1.33;;;9.00;46.30;;;;;;4836257;28;20277;-78
2021/11/04 01:43:48;;;;;;;8.23;1.30;;;9.00;46.40;;;;;;4835001;28;20666;-77
2021/11/04 01:46:12;;;;;;;8.93;1.40;;;8.60;47.00;;;;;;4835886;28;20245;-75
2021/11/04 01:48:35;;;;;;;14.93;2.23;;;9.10;47.60;;;;;;4835572;28;20742;-76
2021/11/04 01:50:58;;;;;;;9.00;1.43;;;9.20;47.00;;;;;;4835750;28;20199;-75
2021/11/04 01:53:21;;;;;;;8.23;1.27;;;10.00;46.40;;;;;;4837270;28;20194;-75
2021/11/04 01:55:45;;;;;;;5.40;0.93;;;;;;;;;;4819543;28;20199;-75
2021/11/04 01:58:07;;;;;;;8.17;1.37;;;9.20;47.20;;;;;;4836981;28;20187;-77
2021/11/04 02:00:32;;;;;;;107.27;14.00;;;9.10;47.60;;;;;;4825581;28;20299;-81
2021/11/04 02:03:07;;;;;;;6.63;1.20;;;8.30;47.30;;;;;;4837402;28;20183;-81
2021/11/04 02:05:40;;;;;;;15.07;2.20;;;9.30;47.30;;;;;;4828653;28;20218;-75
2021/11/04 02:08:08;;;;;;;4.37;0.87;;;9.10;47.60;;;;;;4803729;28;20260;-81
2021/11/04 02:10:34;;;;;;;15.07;2.17;;;9.50;46.60;;;;;;4812116;28;20317;-74
2021/11/04 02:13:05;;;;;;;5.83;0.97;;;9.10;47.60;;;;;;4837055;28;20191;-75
2021/11/04 02:15:30;;;;;;;14.77;2.13;;;8.80;46.90;;;;;;4807148;28;20234;-75
2021/11/04 02:17:55;;;;;;;4.63;0.93;;;9.00;46.40;;;;;;4819238;28;20547;-75
2021/11/04 02:20:28;;;;;;;10.03;1.63;;;9.10;47.50;;;;;;4836840;28;20190;-79
2021/11/04 02:22:59;;;;;;;7.73;1.27;;;8.70;46.20;;;;;;4835745;28;20212;-76
2021/11/04 02:25:28;;;;;;;8.73;1.43;;;9.10;47.50;;;;;;4835598;28;20190;-76
2021/11/04 02:27:53;;;;;;;8.03;1.33;;;9.10;47.40;;;;;;4835582;28;20182;-77
2021/11/04 02:30:17;;;;;;;10.17;1.63;;;9.10;47.40;;;;;;4818573;28;20561;-75
2021/11/04 02:32:40;;;;;;;15.20;2.30;;;9.50;46.70;;;;;;4836813;28;20233;-76
2021/11/04 02:35:03;;;;;;;8.73;1.43;;;8.60;46.80;;;;;;4836827;28;20183;-80
2021/11/04 02:37:27;;;;;;;11.07;1.73;;;9.10;47.40;;;;;;4834855;28;20237;-76
2021/11/04 02:39:50;;;;;;;11.40;1.73;;;8.80;46.20;;;;;;4835009;28;20211;-78
2021/11/04 02:42:15;;;;;;;11.90;1.80;;;9.10;46.30;;;;;;4836316;28;20543;-77
2021/11/04 02:44:38;;;;;;;10.13;1.57;;;;;;;;;;4835069;28;20289;-79
2021/11/04 02:47:01;;;;;;;7.93;1.30;;;9.00;46.40;;;;;;4836559;28;20218;-75
2021/11/04 02:49:26;;;;;;;6.70;1.27;;;9.20;47.50;;;;;;4836163;28;20207;-79
2021/11/04 02:51:49;;;;;;;9.37;1.50;;;9.00;47.40;;;;;;4835798;28;20202;-80
2021/11/04 02:54:12;;;;;;;8.10;1.30;;;;;;;;;;4835631;28;20246;-75
2021/11/04 02:56:46;;;;;;;14.57;2.13;;;9.30;47.60;;;;;;4826598;28;20273;-77
2021/11/04 02:59:11;;;;;;;6.93;1.17;;;9.20;46.90;;;;;;4840834;28;20691;-79
2021/11/04 03:01:33;;;;;;;13.47;2.10;;;;;;;;;;4838455;28;20191;-79
2021/11/04 03:03:56;;;;;;;7.70;1.40;;;;;;;;;;4840152;28;20245;-76
2021/11/04 03:06:19;;;;;;;8.43;1.40;;;10.10;46.40;;;;;;4840235;28;20582;-76
2021/11/04 03:08:41;;;;;;;12.50;1.97;;;;;;;;;;4838882;28;20190;-79
2021/11/04 03:11:06;;;;;;;6.47;1.10;;;;;;;;;;4838908;28;20280;-74
2021/11/04 03:13:28;;;;;;;12.63;1.97;;;;;;;;;;4831303;28;20199;-77
2021/11/04 03:15:56;;;;;;;7.57;1.23;;;9.60;46.70;;;;;;4822233;28;20195;-75
2021/11/04 03:18:19;;;;;;;9.30;1.53;;;9.10;46.50;;;;;;4838238;28;20203;-77
2021/11/04 03:20:42;;;;;;;17.47;2.63;;;9.30;47.70;;;;;;4821559;28;20678;-75
2021/11/04 03:23:06;;;;;;;6.27;1.17;;;9.30;47.30;;;;;;4837916;28;20241;-76
2021/11/04 03:25:28;;;;;;;14.77;2.20;;;9.10;47.50;;;;;;4831126;28;20206;-76
2021/11/04 03:27:54;;;;;;;7.00;1.20;;;9.40;47.70;;;;;;4839926;28;20610;-75
2021/11/04 03:30:20;;;;;;;10.30;1.70;;;9.40;47.70;;;;;;4837659;28;20223;-75
2021/11/04 03:32:45;;;;;;;14.47;2.20;;;9.40;47.60;;;;;;4839260;28;20194;-76
2021/11/04 03:35:08;;;;;;;6.07;1.10;;;9.40;47.60;;;;;;4835922;28;20704;-75
2021/11/04 03:37:33;;;;;;;15.70;2.30;;;9.90;46.70;;;;;;4832206;28;20762;-76
2021/11/04 03:39:56;;;;;;;14.40;2.27;;;9.40;47.60;;;;;;4841633;28;20248;-76
2021/11/04 03:42:19;;;;;;;10.00;1.73;;;9.40;47.50;;;;;;4821382;28;20223;-78
2021/11/04 03:44:42;;;;;;;12.53;1.87;;;9.40;47.50;;;;;;4838106;28;20329;-76
2021/11/04 03:47:06;;;;;;;4.90;0.90;;;9.40;47.50;;;;;;4822058;28;20818;-75
2021/11/04 03:49:33;;;;;;;14.23;2.07;;;9.20;46.30;;;;;;4832060;28;20210;-76
2021/11/04 03:51:56;;;;;;;7.87;1.33;;;9.40;47.40;;;;;;4839310;28;20199;-75
2021/11/04 03:54:22;;;;;;;9.83;1.60;;;9.70;46.70;;;;;;4837827;28;20662;-78
2021/11/04 03:56:45;;;;;;;6.10;1.13;;;9.10;46.30;;;;;;4838329;28;20281;-78
2021/11/04 03:59:08;;;;;;;8.47;1.43;;;9.40;47.40;;;;;;4838069;28;20191;-75
2021/11/04 04:01:32;;;;;;;17.13;2.47;;;9.10;46.20;;;;;;4835741;28;20325;-76
2021/11/04 04:03:55;;;;;;;8.10;1.40;;;9.70;46.40;;;;;;4838062;28;20680;-76
2021/11/04 04:06:22;;;;;;;10.17;1.63;;;9.40;47.40;;;;;;4836651;28;20207;-78
2021/11/04 04:08:50;;;;;;;6.10;1.10;;;10.00;46.80;;;;;;4837215;28;20236;-76
2021/11/04 04:11:13;;;;;;;11.10;1.73;;;;;;;;;;4838911;28;20214;-76
2021/11/04 04:13:58;;;;;;;12.03;1.87;;;9.60;46.90;;;;;;4839173;28;20552;-76
2021/11/04 04:16:40;;;;;;;11.23;1.80;;;;;;;;;;4831988;28;20182;-76
2021/11/04 04:19:23;;;;;;;8.00;1.40;;;8.90;46.20;;;;;;4833017;28;20916;-77
2021/11/04 04:22:07;;;;;;;6.47;1.20;;;9.30;47.30;;;;;;4835200;28;20171;-77
2021/11/04 04:24:50;;;;;;;8.53;1.37;;;;;;;;;;4834504;28;20556;-75
2021/11/04 04:27:33;;;;;;;15.50;2.40;;;;;;;;;;4831812;28;20179;-78
2021/11/04 04:29:55;;;;;;;5.63;1.10;;;9.30;46.20;;;;;;4838949;28;20210;-75
2021/11/04 04:32:18;;;;;;;8.17;1.43;;;8.60;46.10;;;;;;4838248;28;20672;-78
2021/11/04 04:34:41;;;;;;;11.97;1.93;;;9.00;47.00;;;;;;4838370;28;20656;-76
2021/11/04 04:37:04;;;;;;;4.20;0.90;;;8.90;46.90;;;;;;4838740;28;20964;-75
2021/11/04 04:39:28;;;;;;;12.07;1.93;;;8.80;46.80;;;;;;4838279;28;20245;-75
2021/11/04 04:41:51;;;;;;;10.20;1.63;;;8.90;45.90;;;;;;4838453;28;20256;-75
2021/11/04 04:44:13;;;;;;;9.47;1.57;;;8.60;45.60;;;;;;4837119;28;20273;-75
2021/11/04 04:46:36;;;;;;;14.00;2.23;;;8.40;46.30;;;;;;4836689;28;20210;-75
2021/11/04 04:48:59;;;;;;;11.93;1.97;;;;;;;;;;4837606;28;20183;-75
2021/11/04 04:51:22;;;;;;;9.37;1.53;;;;;;;;;;4823038;28;20263;-75
2021/11/04 04:53:45;;;;;;;4.57;0.93;;;;;;;;;;4836898;28;20543;-74
2021/11/04 04:56:09;;;;;;;8.10;1.40;;;8.50;46.30;;;;;;4836770;28;20202;-76
2021/11/04 04:58:32;;;;;;;11.40;1.90;;;;;;;;;;4845628;28;20256;-76
2021/11/04 05:00:54;;;;;;;5.03;1.00;;;;;;;;;;4834270;28;20234;-75
2021/11/04 05:03:17;;;;;;;9.70;1.57;;;8.30;45.20;;;;;;4819845;28;20196;-75
2021/11/04 05:05:40;;;;;;;14.23;2.23;;;8.80;46.10;;;;;;4836614;28;20203;-75
2021/11/04 05:08:02;;;;;;;7.67;1.27;;;8.30;45.50;;;;;;4836956;28;20710;-75
2021/11/04 05:10:25;;;;;;;7.00;1.20;;;;;;;;;;4837638;28;20260;-75
2021/11/04 05:12:49;;;;;;;6.93;1.27;;;8.10;45.20;;;;;;4836851;28;20195;-76
2021/11/04 05:15:12;;;;;;;10.03;1.70;;;;;;;;;;4837075;28;20600;-75
2021/11/04 05:17:36;;;;;;;12.43;2.03;;;;;;;;;;4836472;28;20198;-76
2021/11/04 05:19:59;;;;;;;9.30;1.60;;;;;;;;;;4836360;28;20244;-75
2021/11/04 05:22:22;;;;;;;10.47;1.83;;;;;;;;;;4837404;28;20190;-75
2021/11/04 05:24:44;;;;;;;4.50;0.87;;;8.40;45.80;;;;;;4820185;28;20523;-76
2021/11/04 05:27:08;;;;;;;6.20;1.23;;;8.40;46.00;;;;;;4837406;28;20237;-75
2021/11/04 05:29:32;;;;;;;14.67;2.40;;;8.50;46.10;;;;;;4837081;28;20257;-75
2021/11/04 05:31:55;;;;;;;6.73;1.27;;;8.70;45.10;;;;;;4837999;28;20691;-74
2021/11/04 05:34:17;;;;;;;7.33;1.30;;;8.20;45.00;;;;;;4819505;28;20223;-78
2021/11/04 05:36:40;;;;;;;11.73;2.03;;;8.20;45.40;;;;;;4819501;28;20219;-75
2021/11/04 05:39:03;;;;;;;6.70;1.20;;;8.00;45.00;;;;;;4837543;28;20234;-80
2021/11/04 05:41:26;;;;;;;8.60;1.50;;;8.50;45.70;;;;;;4835664;28;20665;-75
2021/11/04 05:43:49;;;;;;;10.87;1.83;;;8.50;45.50;;;;;;4838330;28;20336;-75
2021/11/04 05:46:13;;;;;;;8.73;1.50;;;8.50;46.30;;;;;;4837319;28;20237;-75
2021/11/04 05:48:36;;;;;;;12.00;1.90;;;8.40;45.40;;;;;;4835855;28;20207;-76
2021/11/04 05:50:59;;;;;;;10.23;1.67;;;8.60;46.40;;;;;;4835448;28;20206;-75
2021/11/04 05:53:23;;;;;;;8.27;1.40;;;;;;;;;;4837367;28;20269;-74
2021/11/04 05:55:46;;;;;;;5.03;1.00;;;;;;;;;;4836089;28;20237;-75
2021/11/04 05:58:08;;;;;;;7.47;1.20;;;;;;;;;;4836004;28;20237;-75
2021/11/04 06:00:31;;;;;;;70.83;10.23;;;8.50;46.40;;;;;;4835572;28;20249;-75
2021/11/04 06:02:55;;;;;;;6.77;1.20;;;8.60;46.50;;;;;;4835621;28;20203;-75
2021/11/04 06:05:17;;;;;;;8.53;1.50;;;8.40;45.50;;;;;;4835262;28;20577;-76
2021/11/04 06:07:40;;;;;;;12.40;2.03;;;9.20;46.80;;;;;;4836828;28;20195;-75
2021/11/04 06:10:03;;;;;;;8.97;1.57;;;8.20;45.50;;;;;;4837102;28;20187;-78
2021/11/04 06:12:26;;;;;;;7.60;1.37;;;8.80;46.70;;;;;;4836692;28;20268;-75
2021/11/04 06:14:49;;;;;;;6.53;1.27;;;;;;;;;;4835443;28;20229;-78
2021/11/04 06:17:11;;;;;;;6.47;1.17;;;8.60;46.70;;;;;;4835876;28;20696;-74
2021/11/04 06:19:35;;;;;;;13.13;2.03;;;9.20;46.60;;;;;;4835093;28;20252;-76
2021/11/04 06:21:58;;;;;;;8.57;1.47;;;;;;;;;;4836725;28;20552;-75
2021/11/04 06:24:21;;;;;;;7.60;1.40;;;9.40;46.10;;;;;;4836721;28;20186;-75
2021/11/04 06:26:44;;;;;;;5.17;1.00;;;9.00;47.00;;;;;;4837290;28;20198;-77
2021/11/04 06:29:06;;;;;;;5.53;1.03;;;9.10;46.00;;;;;;4834210;28;20248;-74
2021/11/04 06:31:29;;;;;;;11.67;1.87;;;9.20;47.00;;;;;;4818304;28;20215;-76
2021/11/04 06:33:51;;;;;;;6.50;1.20;;;9.50;47.00;;;;;;4835698;28;20670;-75
2021/11/04 06:36:15;;;;;;;8.00;1.40;;;9.20;47.20;;;;;;4835582;28;20194;-74
2021/11/04 06:38:38;;;;;;;12.17;2.00;;;;;;;;;;4836737;28;20321;-75
2021/11/04 06:41:02;;;;;;;7.87;1.43;;;8.80;46.60;;;;;;4836857;28;20280;-77
2021/11/04 06:43:25;;;;;;;5.03;1.07;;;9.80;46.50;;;;;;4836171;28;20623;-76
2021/11/04 06:45:49;;;;;;;6.93;1.17;;;9.40;47.40;;;;;;4836535;28;20183;-78
2021/11/04 06:48:14;;;;;;;9.83;1.70;;;9.20;47.30;;;;;;4841190;28;20191;-75
2021/11/04 06:50:40;;;;;;;13.77;2.27;;;9.60;46.60;;;;;;4834536;28;20199;-75
2021/11/04 06:53:09;;;;;;;6.03;1.20;;;9.60;47.60;;;;;;4836753;28;20191;-77
2021/11/04 06:55:35;;;;;;;9.80;1.73;;;9.60;47.60;;;;;;4828313;28;20217;-75
2021/11/04 06:58:01;;;;;;;6.37;1.20;;;9.70;47.50;;;;;;4835462;28;20233;-75
2021/11/04 07:00:25;;;;;;;33.00;4.73;;;;;;;;;;4834756;28;20198;-75
2021/11/04 07:02:53;;;;;;;5.77;1.07;;;10.10;46.50;;;;;;4835324;28;20233;-77
2021/11/04 07:05:15;;;;;;;10.03;1.63;;;9.40;46.70;;;;;;4836652;28;20190;-77
2021/11/04 07:07:44;;;;;;;16.93;2.80;;;9.60;46.70;;;;;;4835401;28;20598;-77
2021/11/04 07:10:10;;;;;;;5.10;1.10;;;9.80;47.80;;;;;;4817364;28;20196;-75
2021/11/04 07:12:33;;;;;;;13.50;2.03;;;9.80;47.70;;;;;;4818680;28;20207;-79
2021/11/04 07:14:59;;;;;;;6.73;1.27;;;9.80;47.70;;;;;;4818884;28;20266;-75
2021/11/04 07:17:22;;;;;;;8.83;1.53;;;;;;;;;;4836352;28;20198;-75
2021/11/04 07:19:47;;;;;;;7.00;1.20;;;9.80;47.70;;;;;;4836007;28;20194;-75
2021/11/04 07:22:22;;;;;;;10.77;1.80;;;9.80;47.70;;;;;;4833734;28;20186;-76
2021/11/04 07:24:47;;;;;;;4.17;0.83;;;9.80;47.70;;;;;;4835077;28;20911;-75
2021/11/04 07:27:16;;;;;;;6.10;1.10;;;10.30;46.60;;;;;;4836555;28;20241;-76
2021/11/04 07:29:43;;;;;;;14.17;2.30;;;9.90;47.70;;;;;;4835682;28;20706;-75
2021/11/04 07:32:07;;;;;;;5.70;1.07;;;10.30;47.10;;;;;;4836192;28;20210;-76
2021/11/04 07:34:31;;;;;;;14.83;2.40;;;10.10;47.50;;;;;;4843584;28;20752;-75
2021/11/04 07:36:53;;;;;;;6.97;1.37;;;;;;;;;;4837668;28;20594;-75
2021/11/04 07:39:16;;;;;;;9.60;1.63;;;;;;;;;;4836214;28;20190;-75
2021/11/04 07:41:39;;;;;;;15.80;2.50;;;;;;;;;;4835079;28;20712;-77
2021/11/04 07:44:04;;;;;;;8.73;1.57;;;10.20;46.50;;;;;;4839210;28;20214;-75
2021/11/04 07:46:28;;;;;;;8.43;1.40;;;10.30;46.60;;;;;;4821637;28;20242;-76
2021/11/04 07:48:51;;;;;;;8.33;1.50;;;10.70;47.70;;;;;;4839323;28;20730;-75
2021/11/04 07:51:14;;;;;;;11.20;1.97;;;10.20;47.10;;;;;;4837605;28;20828;-76
2021/11/04 07:53:37;;;;;;;11.77;1.90;;;;;;;;;;4836437;28;20245;-75
2021/11/04 07:55:59;;;;;;;7.03;1.27;;;10.40;46.80;;;;;;4822078;28;20190;-75
2021/11/04 07:58:22;;;;;;;9.17;1.53;;;;;;;;;;4835914;28;20245;-76
2021/11/04 08:00:46;;;;;;;5.67;1.03;;;10.80;46.90;;;;;;4836199;28;20583;-76
2021/11/04 08:03:09;;;;;;;6.20;1.10;;;10.70;46.90;;;;;;4838337;28;20265;-74
2021/11/04 08:05:32;;;;;;;9.27;1.50;;;;;;;;;;4838307;28;20202;-75
2021/11/04 08:07:54;;;;;;;5.97;1.00;;;;;;;;;;4838532;28;20191;-76
2021/11/04 08:10:18;;;;;;;6.13;1.20;;;11.20;47.70;;;;;;4839768;28;20187;-74
2021/11/04 08:12:41;;;;;;;29.43;4.40;;;;;;;;;;4834753;28;20268;-74
2021/11/04 08:15:05;;;;;;;11.90;1.93;;;11.30;48.30;;;;;;4843038;28;20269;-78
2021/11/04 08:17:29;;;;;;;15.53;2.43;;;11.50;48.50;;;;;;4836227;28;20202;-75
2021/11/04 08:19:52;;;;;;;8.80;1.60;;;;;;;;;;4839912;28;20187;-76
2021/11/04 08:22:16;;;;;;;9.60;1.63;;;;;;;;;;4815208;28;20191;-75
2021/11/04 08:24:38;;;;;;;15.97;2.60;;;;;;;;;;4836523;28;20210;-75
2021/11/04 08:27:01;;;;;;;13.67;2.37;;;;;;;;;;4836061;28;20211;-76
2021/11/04 08:29:24;;;;;;;9.17;1.57;;;;;;;;;;4836590;28;20206;-77
2021/11/04 08:31:47;;;;;;;14.70;2.30;;;;;;;;;;4847314;28;20252;-75
2021/11/04 08:34:12;;;;;;;11.73;1.90;;;12.90;48.70;;;;;;4818171;28;20195;-76
2021/11/04 08:36:35;;;;;;;14.63;2.37;;;;;;;;;;4834731;28;20208;-75
2021/11/04 08:38:58;;;;;;;9.43;1.47;;;;;;;;;;4835453;28;20203;-75
2021/11/04 08:41:20;;;;;;;10.43;1.73;;;;;;;;;;4837027;28;20199;-76
2021/11/04 08:43:43;;;;;;;8.87;1.60;;;14.40;50.60;;;;;;4835254;28;20218;-75
2021/11/04 08:46:07;;;;;;;7.33;1.33;;;;;;;;;;4836380;28;20206;-75
2021/11/04 08:48:30;;;;;;;11.17;1.80;;;;;;;;;;4827039;28;20238;-76
2021/11/04 08:50:54;;;;;;;7.17;1.30;;;13.70;50.30;;;;;;4836346;28;20202;-75
2021/11/04 08:53:17;;;;;;;14.23;2.30;;;;;;;;;;4837036;28;20275;-75
2021/11/04 08:55:41;;;;;;;15.13;2.37;;;13.90;50.80;;;;;;4822675;28;20598;-81
2021/11/04 08:58:04;;;;;;;13.23;2.13;;;;;;;;;;4835599;28;20186;-75
2021/11/04 09:00:26;;;;;;;47.17;6.80;;;;;;;;;;4834058;28;20257;-76
2021/11/04 09:02:49;;;;;;;10.40;1.70;;;;;;;;;;4836065;28;20190;-76
2021/11/04 09:05:13;;;;;;;15.40;2.37;;;;;;;;;;4832083;28;20209;-77
2021/11/04 09:07:38;;;;;;;25.93;3.90;;;14.80;51.00;;;;;;4835057;28;20244;-76
2021/11/04 09:10:01;;;;;;;7.13;1.30;;;;;;;;;;4824852;28;20720;-75
2021/11/04 09:12:23;;;;;;;9.63;1.60;;;;;;;;;;4835983;28;20245;-76
2021/11/04 09:14:47;;;;;;;6.37;1.03;;;;;;;;;;4825372;28;20675;-77
2021/11/04 09:17:10;;;;;;;12.30;2.03;;;;;;;;;;4835588;28;20715;-75
2021/11/04 09:19:33;;;;;;;19.87;2.97;;;;;;;;;;4834064;28;20715;-77
2021/11/04 09:21:57;;;;;;;11.17;1.73;;;;;;;;;;4818650;28;20195;-74
2021/11/04 09:24:21;;;;;;;14.57;2.27;;;15.90;52.40;;;;;;4835443;28;20539;-74
2021/11/04 09:26:44;;;;;;;25.90;3.70;;;;;;;;;;4837979;28;20207;-74
2021/11/04 09:29:06;;;;;;;17.10;2.43;;;16.40;53.00;;;;;;4827146;28;20191;-74
2021/11/04 09:31:29;;;;;;;45.47;6.30;;;;;;;;;;4811216;28;20289;-74
2021/11/04 09:33:57;;;;;;;13.20;1.90;;;;;;;;;;4834189;28;20245;-75
2021/11/04 09:36:25;;;;;;;11.97;1.80;;;;;;;;;;4832364;28;20233;-77
2021/11/04 09:38:48;;;;;;;14.93;2.23;;;;;;;;;;4828284;28;20198;-75
2021/11/04 09:41:12;;;;;;;15.73;2.37;;;16.40;53.30;;;;;;4832422;28;20245;-78
2021/11/04 09:43:35;;;;;;;18.97;2.73;;;;;;;;;;4835906;28;20226;-77
2021/11/04 09:46:00;;;;;;;11.80;1.77;;;16.20;53.20;;;;;;4836391;28;20698;-79
2021/11/04 09:48:23;;;;;;;12.53;1.90;;;;;;;;;;4835521;28;20190;-77
2021/11/04 09:50:46;;;;;;;16.87;2.40;;;;;;;;;;4834662;28;20225;-79
2021/11/04 09:53:09;;;;;;;12.70;1.97;;;;;;;;;;4835112;28;20220;-79
2021/11/04 09:55:32;;;;;;;14.77;2.20;;;;;;;;;;4836098;28;20203;-80
2021/11/04 09:58:00;;;;;;;9.17;1.40;;;15.60;52.80;;;;;;4835617;28;20244;-75
2021/11/04 10:00:31;;;;;;;24.30;3.40;;;15.60;52.80;;;;;;4833626;28;20217;-74
2021/11/04 10:03:02;;;;;;;12.63;2.03;;;15.50;52.70;;;;;;4835766;28;20191;-78
2021/11/04 10:05:24;;;;;;;10.20;1.60;;;;;;;;;;4833545;28;20199;-76
2021/11/04 10:07:49;;;;;;;13.60;2.20;;;15.40;52.60;;;;;;4834929;28;20261;-75
2021/11/04 10:10:12;;;;;;;10.97;1.77;;;;;;;;;;4834528;28;20187;-76
2021/11/04 10:12:35;;;;;;;14.67;2.33;;;;;;;;;;4818378;28;20301;-77
2021/11/04 10:15:12;;;;;;;8.50;1.50;;;15.30;52.50;;;;;;4817347;28;20203;-75
2021/11/04 10:17:37;;;;;;;13.37;2.33;;;;;;;;;;4827140;28;20202;-76
2021/11/04 10:20:13;;;;;;;7.73;1.43;;;15.30;52.40;;;;;;4834814;28;20225;-76
2021/11/04 10:22:35;;;;;;;11.13;1.93;;;;;;;;;;4836120;28;20178;-76
2021/11/04 10:24:58;;;;;;;8.33;1.50;;;;;;;;;;4834836;28;20184;-74
2021/11/04 10:27:32;;;;;;;10.23;1.80;;;15.30;52.40;;;;;;4835420;28;20532;-73
2021/11/04 10:29:54;;;;;;;12.17;2.10;;;;;;;;;;4835585;28;20191;-74
2021/11/04 10:32:32;;;;;;;8.43;1.57;;;15.40;52.40;;;;;;4818769;28;20194;-75
2021/11/04 10:35:06;;;;;;;14.57;2.50;;;15.50;52.50;;;;;;4835941;28;20190;-73
2021/11/04 10:37:29;;;;;;;5.37;1.00;;;;;;;;;;4834176;28;20653;-77
2021/11/04 10:39:53;;;;;;;6.03;1.17;;;15.80;51.70;;;;;;4836287;28;20182;-75
2021/11/04 10:42:17;;;;;;;6.33;1.23;;;;;;;;;;4832244;28;20202;-73
2021/11/04 10:44:40;;;;;;;14.97;2.47;;;16.10;51.80;;;;;;4817720;28;20313;-75
2021/11/04 10:47:02;;;;;;;10.60;1.87;;;15.60;51.60;;;;;;4833484;28;20265;-75
2021/11/04 10:49:27;;;;;;;10.57;1.87;;;15.60;52.50;;;;;;4835776;28;20253;-74
2021/11/04 10:51:58;;;;;;;8.53;1.57;;;15.70;52.50;;;;;;4845890;28;20244;-75
2021/11/04 10:54:21;;;;;;;10.60;1.80;;;;;;;;;;4813355;28;20219;-75
2021/11/04 10:56:45;;;;;;;27.00;4.43;;;15.70;52.60;;;;;;4833161;28;20428;-76
2021/11/04 10:59:10;;;;;;;9.33;1.60;;;15.80;52.60;;;;;;4834734;28;20652;-75
2021/11/04 11:01:36;;;;;;;10.93;1.80;;;15.80;52.70;;;;;;4825870;28;20210;-73
2021/11/04 11:04:03;;;;;;;4.67;1.00;;;15.80;52.70;;;;;;4834071;28;20292;-77
2021/11/04 11:06:29;;;;;;;11.60;2.00;;;15.80;52.70;;;;;;4833623;28;20264;-74
2021/11/04 11:08:52;;;;;;;8.87;1.60;;;;;;;;;;4815582;28;20227;-73
2021/11/04 11:11:15;;;;;;;5.47;1.00;;;;;;;;;;4835607;28;20199;-75
2021/11/04 11:13:37;;;;;;;14.93;2.50;;;;;;;;;;4834496;28;20567;-75
2021/11/04 11:16:03;;;;;;;7.77;1.40;;;17.80;54.20;;;;;;4837242;28;20187;-77
2021/11/04 11:18:27;;;;;;;13.83;2.27;;;18.20;54.60;;;;;;4837378;28;20195;-76
2021/11/04 11:20:50;;;;;;;12.20;2.07;;;;;;;;;;4839088;28;20628;-75
2021/11/04 11:23:15;;;;;;;8.07;1.40;;;18.80;55.30;;;;;;4821094;28;20191;-77
2021/11/04 11:25:38;;;;;;;14.53;2.37;;;;;;;;;;4814693;28;20711;-76
2021/11/04 11:28:02;;;;;;;10.93;1.80;;;;;;;;;;4819322;28;20195;-77
2021/11/04 11:30:24;;;;;;;9.30;1.60;;;;;;;;;;4837827;28;21943;-77
2021/11/04 11:32:50;;;;;;;12.37;2.00;;;;;;;;;;4837061;28;20207;-75
2021/11/04 11:35:18;;;;;;;10.67;1.67;;;19.90;55.50;;;;;;4837276;28;20284;-76
2021/11/04 11:38:01;;;;;;;13.80;2.20;;;20.60;56.40;;;;;;4836987;28;20265;-74
2021/11/04 11:40:26;;;;;;;10.83;1.83;;;19.50;56.50;;;;;;4819434;28;20697;-75
2021/11/04 11:43:03;;;;;;;11.77;1.93;;;19.10;56.20;;;;;;4820525;28;20670;-75
2021/11/04 11:45:26;;;;;;;8.90;1.43;;;;;;;;;;4838277;28;20234;-75
2021/11/04 11:47:49;;;;;;;6.60;1.20;;;;;;;;;;4837246;28;20225;-73
2021/11/04 11:50:29;;;;;;;12.83;1.97;;;18.30;55.80;;;;;;4836924;28;20703;-74
2021/11/04 11:52:57;;;;;;;9.10;1.50;;;18.10;55.50;;;;;;4835872;28;20186;-74
2021/11/04 11:55:22;;;;;;;9.33;1.53;;;18.50;55.40;;;;;;4829468;28;20241;-75
2021/11/04 11:58:22;;;;;;;13.43;2.13;;;19.40;56.10;;;;;;4835767;28;20269;-73
2021/11/04 12:00:54;;;;;;;34.20;5.30;;;21.40;57.70;;;;;;4812883;28;20261;-75
2021/11/04 12:03:50;;;;;;;11.60;1.87;;;24.00;59.40;;;;;;4819148;28;20247;-75
2021/11/04 12:06:50;;;;;;;5.40;0.90;;;25.40;45.00;;;;;;4837437;28;20217;-73
2021/11/04 12:09:41;;;;;;;8.17;1.30;;;25.60;46.40;;;;;;4837391;28;20226;-74
2021/11/04 12:12:05;;;;;;;12.00;1.87;;;25.30;46.10;;;;;;4836147;28;20203;-74
2021/11/04 12:14:36;;;;;;;6.27;1.10;;;24.70;60.80;;;;;;4835534;28;20277;-74
2021/11/04 12:17:15;;;;;;;17.87;2.80;;;23.90;59.90;;;;;;4837430;28;20206;-79
2021/11/04 12:19:40;;;;;;;12.93;2.00;;;23.00;60.10;;;;;;4836202;28;20193;-77
2021/11/04 12:22:03;;;;;;;12.20;1.97;;;;;;;;;;4837092;28;20190;-77
2021/11/04 12:24:26;;;;;;;6.77;1.10;;;;;;;;;;4832604;28;20200;-76
2021/11/04 12:26:49;;;;;;;26.23;3.93;;;;;;;;;;4835723;28;20212;-74
2021/11/04 12:29:14;;;;;;;9.90;1.57;;;20.20;58.30;;;;;;4837222;28;20237;-75
2021/11/04 12:31:40;;;;;;;9.20;1.50;;;19.60;57.90;;;;;;4820120;28;20226;-74
2021/11/04 12:34:05;;;;;;;11.60;1.90;;;19.30;57.70;;;;;;4837691;28;20580;-75
2021/11/04 12:36:33;;;;;;;6.80;1.20;;;18.90;57.50;;;;;;4836366;28;20232;-74
2021/11/04 12:38:55;;;;;;;11.00;1.80;;;;;;;;;;4837131;28;20195;-75
2021/11/04 12:41:21;;;;;;;9.03;1.50;;;18.60;57.10;;;;;;4836661;28;20284;-76
2021/11/04 12:43:45;;;;;;;15.50;2.50;;;18.40;56.80;;;;;;4837334;28;20296;-76
2021/11/04 12:46:16;;;;;;;6.43;1.10;;;20.80;58.10;;;;;;4835598;28;20245;-73
2021/11/04 12:48:48;;;;;;;6.60;1.10;;;23.50;59.90;;;;;;4836471;28;20182;-77
2021/11/04 12:51:14;;;;;;;11.03;1.63;;;25.30;46.20;;;;;;4836383;28;20237;-75
2021/11/04 12:53:50;;;;;;;9.57;1.57;;;25.00;53.70;;;;;;4836744;28;20226;-82
2021/11/04 12:56:13;;;;;;;14.37;2.27;;;;;;;;;;4838228;28;20184;-77
2021/11/04 12:58:37;;;;;;;9.00;1.50;;;;;;;;;;4837285;28;20210;-81
2021/11/04 13:01:02;;;;;;;7.10;1.20;;;23.10;59.20;;;;;;4835927;28;20192;-76
2021/11/04 13:03:35;;;;;;;9.33;1.67;;;21.60;59.50;;;;;;4831415;28;20204;-79
2021/11/04 13:05:58;;;;;;;12.87;2.07;;;;;;;;;;4836361;28;20198;-82
2021/11/04 13:08:22;;;;;;;7.23;1.17;;;20.30;58.80;;;;;;4846192;28;20189;-78
2021/11/04 13:10:46;;;;;;;11.63;1.80;;;;;;;;;;4835712;28;20237;-77
2021/11/04 13:13:08;;;;;;;8.07;1.47;;;;;;;;;;4836178;28;20199;-78